Bei Facebook empfehlenBei Twitter postenGoogle plusPinterest

Das Wetter im Erzgebirge am 25.03.2017

Wetter und Klima am 25.03.2017 Holzhau im Erzgebirge (630m ü.NN)
Letzte gemessene Temperatur und Uhrzeit der Messung23:45:00 Uhr-0.60 °C
Temperatur (Maximum / Höchstwert) und Uhrzeit der Messung13:00:00 Uhr12.10 °C
Temperatur (Minimum / Tiefstwert) und Uhrzeit der Messung06:15:00-3.10 °C
Errechneter Absolutwert der Temperaturschwankungen zwischen Tmin und Tmax des Tages15.20 K
Errechnete Tagesmitteltemperatur3.41354 °C
Gesamt - Niederschlag des Tages (in flüssiger Form)0.00 Liter / m²
Luftdruck (Maximum / Höchstwert) und Zeitpunkt der Messung01:15:00 Uhr1025.80 hPa
Luftdruck (Minimum / Tiefstwert) und Zeitpunkt der Messung23:00:00 Uhr1018.50 hPa
Errechneter Absolutwert der Luftdruckschwankungen des Tages7.30 hPa
Höchste gemessene Windgeschwindigkeit und Uhrzeit der Messung15:00:00 Uhr11.16 km/h
Errechnete Windhäufigkeit in Relation zu den Messwerten des Tages31.25000 %
Niedrigste Windkühle (Windchill) und Zeitpunkt der Messung01:45:00 Uhr-5.40 °C
Taupunkt (Maximum / Höchstwert) und Uhrzeit der Messung08:15:00 Uhr3.80 °C
Taupunkt (Minimum / Tiefstwert) und Uhrzeit der Messung06:15:00-4.30 °C
Anzahl der automatisch eingelesenen Messwerte 96

Detaillierte Wetter- und Klima- Messwerte für den 25.03.2017 in Holzhau im Erzgebirge (630m ü.NN)
ZeitTemperaturLuftdruckRel. LuftfeuchteWindWindrichtungWindchillTaupunktNiederschlag l/m²
23:45:00-0.60 °C1018.70 hPa85.00 %-3.10 °C 
23:30:00-0.40 °C1018.60 hPa85.00 %-2.90 °C 
23:15:00-0.40 °C1018.60 hPa84.00 %-3.00 °C 
23:00:00-0.60 °C1018.50 hPa84.00 %-3.20 °C 
22:45:00-0.40 °C1018.50 hPa84.00 %-3.00 °C 
22:30:00-0.40 °C1018.50 hPa83.00 %-3.20 °C 
22:15:00-0.20 °C1018.50 hPa82.00 %-3.20 °C 
22:00:000.10 °C1018.60 hPa81.00 %-2.80 °C 
21:45:000.40 °C1018.90 hPa80.00 %-2.60 °C 
21:30:000.70 °C1018.90 hPa81.00 %-2.20 °C 
21:15:000.50 °C1019.20 hPa82.00 %-2.20 °C 
21:00:000.30 °C1019.20 hPa82.00 %-2.40 °C 
20:45:00-0.10 °C1019.20 hPa82.00 %-3.10 °C 
20:30:00-0.10 °C1019.20 hPa81.00 %-3.30 °C 
20:15:00-0.10 °C1019.30 hPa80.00 %-3.50 °C 
20:00:000.20 °C1019.20 hPa79.00 %-3.00 °C 
19:45:000.40 °C1019.30 hPa78.00 %-3.00 °C 
19:30:000.90 °C1019.00 hPa76.00 %-2.80 °C 
19:15:001.30 °C1019.00 hPa75.00 %-2.60 °C 
19:00:001.90 °C1019.10 hPa73.00 %-2.40 °C 
18:45:002.50 °C1019.10 hPa72.00 %-2.00 °C 
18:30:003.20 °C1019.30 hPa70.00 %-1.70 °C 
18:15:003.90 °C1019.40 hPa67.00 %-1.70 °C 
18:00:004.60 °C1019.40 hPa66.00 %-1.20 °C 
17:45:005.10 °C1019.50 hPa65.00 %-0.90 °C 
17:30:005.80 °C1019.60 hPa62.00 %-0.90 °C 
17:15:006.50 °C1019.80 hPa59.00 %3.24 km/hWNW6.50 °C-0.90 °C 
17:00:007.10 °C1019.70 hPa57.00 %0.72 km/hW7.10 °C-0.80 °C 
16:45:007.80 °C1019.70 hPa55.00 %2.52 km/hW7.80 °C-0.70 °C 
16:30:008.40 °C1019.80 hPa54.00 %7.56 km/hNNW7.20 °C-0.40 °C 
16:15:008.90 °C1020.30 hPa54.00 %0.10 °C 
16:00:009.20 °C1020.20 hPa53.00 %9.36 km/hNW7.80 °C0.10 °C 
15:45:009.60 °C1020.30 hPa53.00 %0.50 °C 
15:30:0010.20 °C1020.20 hPa52.00 %4.32 km/hNNW10.20 °C0.80 °C 
15:15:0010.50 °C1020.50 hPa52.00 %7.92 km/hWSW9.60 °C1.10 °C 
15:00:0010.60 °C1020.50 hPa51.00 %11.16 km/hWNW9.20 °C0.90 °C 
14:45:0010.40 °C1020.90 hPa52.00 %1.00 °C 
14:30:0010.30 °C1021.20 hPa52.00 %3.96 km/hWNW10.30 °C0.90 °C 
14:15:009.80 °C1021.40 hPa53.00 %0.70 °C 
14:00:009.90 °C1021.40 hPa53.00 %1.80 km/hNNW9.90 °C0.80 °C 
13:45:0010.20 °C1021.50 hPa53.00 %1.10 °C 
13:30:0010.40 °C1021.80 hPa51.00 %5.76 km/hNNW10.00 °C0.70 °C 
13:15:0010.80 °C1021.90 hPa50.00 %0.80 °C 
13:00:0012.10 °C1022.00 hPa48.00 %1.40 °C 
12:45:0012.10 °C1022.10 hPa49.00 %3.24 km/hWNW12.10 °C1.70 °C 
12:30:0011.90 °C1022.30 hPa51.00 %2.88 km/hW11.90 °C2.10 °C 
12:15:0010.80 °C1022.80 hPa51.00 %1.10 °C 
12:00:0010.90 °C1022.90 hPa53.00 %1.70 °C 
11:45:0010.90 °C1023.00 hPa55.00 %2.20 °C 
11:30:0010.30 °C1023.10 hPa54.00 %1.40 °C 
11:15:0010.90 °C1023.40 hPa52.00 %4.68 km/hNNW10.90 °C1.40 °C 
11:00:0011.30 °C1023.50 hPa52.00 %1.80 °C 
10:45:0011.00 °C1023.40 hPa53.00 %5.40 km/hWNW10.80 °C1.80 °C 
10:30:0010.60 °C1023.40 hPa55.00 %7.20 km/hSW9.90 °C1.90 °C 
10:15:0010.80 °C1023.70 hPa55.00 %4.32 km/hW10.80 °C2.10 °C 
10:00:0010.20 °C1023.80 hPa59.00 %2.60 °C 
09:45:009.90 °C1023.90 hPa61.00 %2.70 °C 
09:30:009.90 °C1023.90 hPa60.00 %2.50 °C 
09:15:009.90 °C1024.00 hPa62.00 %3.00 °C 
09:00:009.50 °C1024.10 hPa64.00 %3.00 °C 
08:45:008.40 °C1024.10 hPa67.00 %2.60 °C 
08:30:007.80 °C1024.10 hPa71.00 %4.68 km/hOSO7.80 °C2.90 °C 
08:15:006.80 °C1024.20 hPa81.00 %3.80 °C 
08:00:004.90 °C1024.30 hPa88.00 %3.10 °C 
07:45:003.20 °C1024.40 hPa89.00 %1.60 °C 
07:30:00-1.20 °C1024.30 hPa92.00 %-2.50 °C 
07:15:00-1.80 °C1024.60 hPa93.00 %2.52 km/hSO-1.80 °C-2.90 °C 
07:00:00-2.20 °C1024.40 hPa92.00 %-3.50 °C 
06:45:00-2.70 °C1024.60 hPa92.00 %-3.90 °C 
06:30:00-2.90 °C1024.60 hPa92.00 %1.08 km/hSO-2.90 °C-4.10 °C 
06:15:00-3.10 °C1024.60 hPa92.00 %-4.30 °C 
06:00:00-3.10 °C1024.70 hPa92.00 %-4.30 °C 
05:45:00-2.90 °C1024.70 hPa92.00 %-4.10 °C 
05:30:00-3.00 °C1024.50 hPa92.00 %-4.20 °C 
05:15:00-2.90 °C1024.50 hPa92.00 %4.32 km/hSO-2.90 °C-4.10 °C 
05:00:00-2.70 °C1024.60 hPa92.00 %5.76 km/hSO-5.00 °C-3.90 °C 
04:45:00-2.80 °C1024.50 hPa92.00 %-4.00 °C 
04:30:00-2.50 °C1024.80 hPa92.00 %-3.80 °C 
04:15:00-2.60 °C1025.00 hPa92.00 %-3.90 °C 
04:00:00-2.50 °C1024.90 hPa92.00 %-3.80 °C 
03:45:00-2.50 °C1025.00 hPa92.00 %5.76 km/hO-4.80 °C-3.80 °C 
03:30:00-2.40 °C1024.90 hPa92.00 %6.84 km/hOSO-5.10 °C-3.70 °C 
03:15:00-2.60 °C1024.90 hPa92.00 %5.04 km/hOSO-4.60 °C-3.90 °C 
03:00:00-2.50 °C1025.00 hPa92.00 %-3.80 °C 
02:45:00-2.60 °C1025.10 hPa92.00 %2.52 km/hSO-2.60 °C-3.90 °C 
02:30:00-2.50 °C1025.20 hPa91.00 %-3.90 °C 
02:15:00-2.20 °C1025.30 hPa91.00 %-3.60 °C 
02:00:00-2.20 °C1025.60 hPa92.00 %-3.50 °C 
01:45:00-2.20 °C1025.60 hPa91.00 %8.28 km/hOSO-5.40 °C-3.60 °C 
01:30:00-2.40 °C1025.70 hPa91.00 %-3.80 °C 
01:15:00-2.40 °C1025.80 hPa91.00 %-3.80 °C 
01:00:00-2.10 °C1025.60 hPa91.00 %-3.50 °C 
00:45:00-2.00 °C1025.70 hPa91.00 %-3.40 °C 
00:30:00-1.80 °C1025.70 hPa91.00 %1.08 km/hSO-1.80 °C-3.20 °C 
00:15:00-2.10 °C1025.70 hPa91.00 %4.68 km/hOSO-2.10 °C-3.50 °C 
00:00:00-2.10 °C1025.80 hPa91.00 %3.96 km/hSO-2.10 °C-3.50 °C 

Permanenter Link zu dieser Seite: Wetter im Erzgebirge am 25.03.2017
Performance-Info: Die Erstellung der Seite / Statistik(en) / Tabelle(n) erforderte 5 Datenbankserver-Abfrage(n) und dauerte 69 Millisekunden. (Dieser Messwert ist von der Gesamt-Auslastung des Servers abhängig.)
Erzgebirge - Wetter | Erzgebirge - Wetter (Mobilgeräte) | Komplette Klimadatenbank